Time;durP1;ratioP1;P1;durP2;ratioP2;P2;SDS_P1;SDS_P2;PMS_P1;PMS_P2;Temp;Humidity;BMP_temperature;BMP_pressure;BME280_temperature;BME280_humidity;BME280_pressure;Samples;Min_cycle;Max_cycle;Signal;HPM_P1;HPM_P2
2023/05/12 00:01:42;;;;;;;5.00;1.77;;;22.90;99.90;;;;;;5071171;28;20184;-70
2023/05/12 00:04:09;;;;;;;10.30;2.40;;;22.90;99.90;;;;;;5071223;28;20179;-70
2023/05/12 00:06:37;;;;;;;4.87;1.80;;;22.60;99.90;;;;;;5070940;28;20180;-68
2023/05/12 00:09:05;;;;;;;5.43;1.97;;;22.50;99.90;;;;;;5071194;28;20184;-69
2023/05/12 00:15:18;;;;;;;7.83;2.33;;;23.00;99.90;;;;;;5052150;28;20196;-69
2023/05/12 00:17:46;;;;;;;3.53;2.10;;;22.70;99.90;;;;;;5070577;28;20231;-69
2023/05/12 00:20:13;;;;;;;3.57;1.87;;;22.90;99.90;;;;;;5070455;28;20180;-70
2023/05/12 00:22:41;;;;;;;4.70;1.83;;;22.90;99.90;;;;;;5070958;28;20179;-71
2023/05/12 00:28:31;;;;;;;13.07;2.20;;;23.30;99.90;;;;;;5055324;28;20699;-72
2023/05/12 00:31:02;;;;;;;8.20;2.70;;;23.20;99.90;;;;;;5073692;28;20184;-72
2023/05/12 00:36:52;;;;;;;6.87;2.80;;;23.60;99.90;;;;;;5073484;28;20289;-73
2023/05/12 00:39:20;;;;;;;7.20;2.30;;;23.90;99.90;;;;;;5073733;28;20586;-72
2023/05/12 00:41:48;;;;;;;3.67;2.43;;;24.10;99.90;;;;;;5072821;28;20589;-73
2023/05/12 00:44:17;;;;;;;8.27;2.80;;;24.10;99.90;;;;;;5073975;28;20186;-71
2023/05/12 00:46:44;;;;;;;6.77;3.93;;;24.10;99.90;;;;;;5074241;28;20269;-73
2023/05/12 00:49:12;;;;;;;8.13;2.67;;;24.60;99.90;;;;;;5073679;28;20176;-72
2023/05/12 00:51:40;;;;;;;6.70;3.60;;;24.40;99.90;;;;;;5073229;28;20190;-72
2023/05/12 00:54:07;;;;;;;16.90;4.17;;;24.70;99.90;;;;;;5073188;28;20207;-73
2023/05/12 00:56:38;;;;;;;9.27;3.53;;;25.00;99.90;;;;;;5073580;28;20275;-71
2023/05/12 00:59:06;;;;;;;11.60;3.90;;;25.20;99.90;;;;;;5072749;28;20273;-68
2023/05/12 01:01:34;;;;;;;16.07;5.37;;;25.00;99.90;;;;;;5073374;28;20198;-71
2023/05/12 01:04:02;;;;;;;14.97;5.47;;;25.10;99.90;;;;;;5073889;28;20223;-74
2023/05/12 01:06:48;;;;;;;10.87;5.03;;;24.90;99.90;;;;;;5073239;28;20230;-75
2023/05/12 01:09:16;;;;;;;20.07;6.23;;;25.30;99.90;;;;;;5073351;28;20183;-74
2023/05/12 01:11:43;;;;;;;17.43;5.90;;;25.40;99.90;;;;;;5073900;28;20641;-72
2023/05/12 01:14:10;;;;;;;14.30;5.50;;;25.30;99.90;;;;;;5073760;28;20172;-73
2023/05/12 01:16:52;;;;;;;13.13;5.40;;;25.30;99.90;;;;;;5073744;28;20176;-73
2023/05/12 01:19:42;;;;;;;12.93;5.83;;;25.30;99.90;;;;;;5072301;28;20219;-73
2023/05/12 01:22:11;;;;;;;16.10;5.30;;;25.40;99.90;;;;;;5073560;28;20176;-73
2023/05/12 01:25:02;;;;;;;14.50;4.63;;;25.80;99.90;;;;;;5072321;28;20663;-72
2023/05/12 01:27:30;;;;;;;22.63;5.17;;;26.00;99.90;;;;;;5073554;28;20172;-73
2023/05/12 01:30:03;;;;;;;14.03;5.67;;;26.00;99.90;;;;;;5073371;28;20276;-71
2023/05/12 01:32:30;;;;;;;26.30;6.50;;;26.00;99.90;;;;;;5072128;28;20191;-72
2023/05/12 01:34:57;;;;;;;19.10;5.80;;;25.80;99.90;;;;;;5073549;28;20576;-73
2023/05/12 01:37:25;;;;;;;17.77;6.07;;;26.00;99.90;;;;;;5073125;28;20249;-73
2023/05/12 01:39:53;;;;;;;14.30;5.33;;;26.20;99.90;;;;;;5073301;28;20306;-72
2023/05/12 01:42:21;;;;;;;16.90;6.33;;;26.50;99.90;;;;;;5072795;28;20176;-74
2023/05/12 01:44:48;;;;;;;21.70;6.40;;;25.80;99.90;;;;;;5073306;28;20241;-73
2023/05/12 01:47:15;;;;;;;19.60;6.77;;;25.80;99.90;;;;;;5073201;28;20168;-73
2023/05/12 01:49:44;;;;;;;19.57;6.77;;;25.90;99.90;;;;;;5073168;28;20245;-71
2023/05/12 01:52:11;;;;;;;18.87;6.67;;;26.20;99.90;;;;;;5073131;28;20211;-73
2023/05/12 01:58:01;;;;;;;19.83;7.17;;;25.80;99.90;;;;;;5072142;28;20187;-73
2023/05/12 02:00:28;;;;;;;17.33;5.97;;;26.00;99.90;;;;;;5072890;28;20184;-73
2023/05/12 02:02:55;;;;;;;15.30;6.13;;;26.40;99.90;;;;;;5072803;28;20172;-72
2023/05/12 02:05:23;;;;;;;15.73;5.73;;;26.10;99.90;;;;;;5072415;28;20250;-72
2023/05/12 02:07:50;;;;;;;13.17;5.63;;;26.10;99.90;;;;;;5069996;28;20180;-70
2023/05/12 02:10:18;;;;;;;16.27;5.83;;;26.00;99.90;;;;;;5072261;28;20188;-71
2023/05/12 02:12:45;;;;;;;12.57;5.93;;;26.00;99.90;;;;;;5071763;28;20273;-72
2023/05/12 02:15:12;;;;;;;13.23;4.70;;;26.60;99.90;;;;;;5072107;28;20192;-74
2023/05/12 02:17:40;;;;;;;9.73;4.63;;;27.00;99.90;;;;;;5072182;28;20180;-73
2023/05/12 02:20:08;;;;;;;13.60;5.00;;;27.40;99.90;;;;;;5072369;28;20620;-72
2023/05/12 02:22:35;;;;;;;10.30;3.50;;;27.30;99.90;;;;;;5072037;28;20677;-70
2023/05/12 02:25:03;;;;;;;11.07;4.50;;;27.50;99.90;;;;;;5072186;28;20188;-71
2023/05/12 02:27:31;;;;;;;13.70;4.73;;;27.90;99.90;;;;;;5072391;28;20634;-72
2023/05/12 02:29:58;;;;;;;12.83;4.57;;;27.90;99.20;;;;;;5072130;28;20308;-70
2023/05/12 02:32:28;;;;;;;12.57;4.40;;;27.80;97.70;;;;;;5071922;28;20184;-71
2023/05/12 02:34:56;;;;;;;10.40;4.10;;;27.70;99.40;;;;;;5071847;28;20176;-72
2023/05/12 02:37:24;;;;;;;10.27;4.33;;;27.80;99.90;;;;;;5071119;28;20190;-72
2023/05/12 02:39:51;;;;;;;12.07;3.93;;;28.00;96.70;;;;;;5071554;28;20237;-71
2023/05/12 02:42:19;;;;;;;12.27;4.07;;;27.60;97.00;;;;;;5069115;28;20172;-69
2023/05/12 02:44:46;;;;;;;13.77;3.33;;;27.30;98.30;;;;;;5072090;28;20171;-71
2023/05/12 02:47:13;;;;;;;12.90;3.17;;;27.60;97.10;;;;;;5072190;28;20210;-69
2023/05/12 02:49:41;;;;;;;9.23;3.05;;;28.10;96.00;;;;;;5072079;28;20172;-70
2023/05/12 02:52:08;;;;;;;10.73;3.57;;;28.40;93.30;;;;;;5071225;28;20276;-71
2023/05/12 02:54:35;;;;;;;9.63;3.50;;;28.30;87.30;;;;;;5071709;28;20221;-73
2023/05/12 02:57:06;;;;;;;7.10;3.37;;;27.50;88.50;;;;;;5071902;28;20271;-70
2023/05/12 02:59:34;;;;;;;9.23;2.53;;;27.90;84.60;;;;;;5071477;28;20200;-72
2023/05/12 03:02:50;;;;;;;7.57;2.77;;;27.90;89.40;;;;;;5071058;28;20271;-71
2023/05/12 03:05:17;;;;;;;8.83;2.53;;;28.30;80.60;;;;;;5071399;28;20293;-71
2023/05/12 03:07:47;;;;;;;8.13;2.37;;;28.50;71.00;;;;;;5071714;28;20180;-70
2023/05/12 03:10:15;;;;;;;9.73;2.30;;;28.40;64.30;;;;;;5071747;28;20186;-71
2023/05/12 03:12:43;;;;;;;3.10;1.87;;;28.50;62.70;;;;;;5071972;28;20187;-72
2023/05/12 03:15:10;;;;;;;8.90;2.20;;;28.30;62.70;;;;;;5071133;28;20649;-69
2023/05/12 03:17:38;;;;;;;8.23;2.17;;;28.30;60.70;;;;;;5071852;28;20184;-73
2023/05/12 03:20:06;;;;;;;5.60;1.93;;;27.40;57.10;;;;;;5071728;28;20779;-71
2023/05/12 03:22:33;;;;;;;6.90;1.90;;;27.00;60.40;;;;;;5071429;28;20586;-73
2023/05/12 03:25:03;;;;;;;4.93;1.50;;;27.20;60.60;;;;;;5070385;28;20192;-70
2023/05/12 03:27:31;;;;;;;8.97;1.53;;;27.50;54.70;;;;;;5071595;28;20233;-70
2023/05/12 03:30:03;;;;;;;2.57;1.30;;;27.70;52.10;;;;;;5071555;28;20692;-71
2023/05/12 03:32:31;;;;;;;6.97;1.50;;;27.40;50.40;;;;;;5071096;28;20187;-72
2023/05/12 03:34:58;;;;;;;3.10;1.10;;;27.30;49.60;;;;;;5071091;28;20180;-72
2023/05/12 03:37:26;;;;;;;3.77;1.43;;;27.40;48.20;;;;;;5071882;28;20179;-72
2023/05/12 03:39:54;;;;;;;5.47;1.30;;;27.30;46.80;;;;;;5071602;28;20524;-69
2023/05/12 03:42:25;;;;;;;6.90;1.70;;;27.70;49.10;;;;;;5071425;28;20229;-71
2023/05/12 03:44:52;;;;;;;2.67;1.13;;;27.40;48.10;;;;;;5071526;28;20237;-70
2023/05/12 03:47:19;;;;;;;4.03;1.03;;;27.30;47.80;;;;;;5071589;28;20206;-69
2023/05/12 03:49:47;;;;;;;4.87;1.80;;;27.50;49.10;;;;;;5071284;28;20745;-70
2023/05/12 03:52:14;;;;;;;12.38;1.50;;;27.90;48.80;;;;;;5071028;28;20184;-71
2023/05/12 03:54:42;;;;;;;7.65;2.08;;;27.90;50.90;;;;;;5071636;28;20180;-70
2023/05/12 03:57:09;;;;;;;5.43;1.47;;;27.30;51.00;;;;;;5071423;28;20186;-70
2023/05/12 03:59:36;;;;;;;3.70;1.42;;;26.80;50.60;;;;;;5071458;28;20187;-70
2023/05/12 04:02:06;;;;;;;4.73;1.33;;;27.20;51.20;;;;;;5070983;28;20171;-71
2023/05/12 04:04:35;;;;;;;6.53;1.40;;;27.50;48.50;;;;;;5072604;28;20577;-70
2023/05/12 04:07:04;;;;;;;2.87;1.53;;;27.70;49.80;;;;;;5075070;28;20283;-70
2023/05/12 04:09:32;;;;;;;2.67;1.30;;;27.70;54.10;;;;;;5073576;28;20212;-70
2023/05/12 04:12:00;;;;;;;9.40;1.80;;;27.90;56.10;;;;;;5074826;28;20211;-70
2023/05/12 04:14:27;;;;;;;4.30;1.20;;;27.80;54.00;;;;;;5074654;28;20180;-71
2023/05/12 04:16:56;;;;;;;3.67;1.20;;;27.70;51.00;;;;;;5074546;28;20206;-70
2023/05/12 04:19:23;;;;;;;6.13;1.53;;;28.00;51.20;;;;;;5073684;28;20263;-68
2023/05/12 04:21:51;;;;;;;4.63;1.40;;;28.30;48.30;;;;;;5074273;28;20187;-70
2023/05/12 04:24:19;;;;;;;3.37;1.17;;;28.00;48.30;;;;;;5074577;28;20194;-70
2023/05/12 04:26:47;;;;;;;2.70;1.33;;;27.50;50.60;;;;;;5074398;28;20176;-71
2023/05/12 04:29:14;;;;;;;1.63;1.20;;;27.30;51.10;;;;;;5074570;28;20244;-69
2023/05/12 04:31:42;;;;;;;2.70;1.20;;;27.40;50.30;;;;;;5074203;28;20176;-69
2023/05/12 04:34:10;;;;;;;2.33;1.30;;;27.50;45.80;;;;;;5075546;28;20180;-68
2023/05/12 04:39:59;;;;;;;4.50;1.20;;;27.20;48.00;;;;;;5076634;28;20191;-71
2023/05/12 04:42:27;;;;;;;4.67;1.43;;;27.30;45.40;;;;;;5075853;28;20233;-71
2023/05/12 04:44:55;;;;;;;3.33;1.67;;;27.20;45.30;;;;;;5075738;28;20558;-69
2023/05/12 04:47:23;;;;;;;3.93;1.53;;;27.20;44.50;;;;;;5075549;28;20677;-69
2023/05/12 04:49:50;;;;;;;4.93;1.47;;;27.10;43.40;;;;;;5075432;28;20215;-70
2023/05/12 04:52:20;;;;;;;2.90;1.50;;;27.00;42.10;;;;;;5075493;28;20175;-69
2023/05/12 04:54:48;;;;;;;4.30;1.40;;;27.00;44.90;;;;;;5075534;28;20645;-69
2023/05/12 04:57:15;;;;;;;4.37;1.50;;;27.00;45.20;;;;;;5075515;28;20225;-70
2023/05/12 04:59:43;;;;;;;2.07;1.07;;;26.90;45.20;;;;;;5075465;28;20268;-69
2023/05/12 05:02:11;;;;;;;4.07;1.20;;;26.90;43.90;;;;;;5074200;28;20518;-70
2023/05/12 05:04:39;;;;;;;3.07;1.30;;;26.70;44.50;;;;;;5075400;28;20176;-70
2023/05/12 05:07:07;;;;;;;5.17;1.47;;;26.80;47.60;;;;;;5075391;28;20172;-70
2023/05/12 05:09:35;;;;;;;5.20;1.50;;;26.60;43.00;;;;;;5075278;28;20266;-68
2023/05/12 05:12:06;;;;;;;4.90;1.50;;;26.30;44.60;;;;;;5074970;28;20254;-68
2023/05/12 05:14:34;;;;;;;1.70;1.10;;;26.30;46.10;;;;;;5075069;28;20164;-68
2023/05/12 05:17:02;;;;;;;3.07;1.23;;;26.30;48.30;;;;;;5074279;28;20172;-69
2023/05/12 05:19:30;;;;;;;3.70;1.40;;;26.30;50.60;;;;;;5074772;28;20630;-70
2023/05/12 05:22:00;;;;;;;2.90;1.47;;;26.40;47.70;;;;;;5074930;28;20201;-70
2023/05/12 05:24:28;;;;;;;3.13;1.20;;;26.30;47.90;;;;;;5074706;28;20660;-69
2023/05/12 05:33:21;;;;;;;6.17;1.90;;;25.50;42.20;;;;;;5073264;28;20218;-70
2023/05/12 05:35:49;;;;;;;3.53;1.53;;;24.70;44.80;;;;;;5074727;28;20179;-70
2023/05/12 05:38:19;;;;;;;3.33;1.30;;;24.30;46.70;;;;;;5074519;28;20225;-71
2023/05/12 05:40:47;;;;;;;3.40;1.37;;;24.00;49.50;;;;;;5074955;28;20225;-70
2023/05/12 05:43:14;;;;;;;4.40;1.40;;;23.80;54.00;;;;;;5074476;28;20168;-68
2023/05/12 05:45:42;;;;;;;5.93;1.80;;;23.60;70.10;;;;;;5074298;28;20259;-68
2023/05/12 05:48:10;;;;;;;3.63;1.40;;;23.30;77.90;;;;;;5073220;28;20187;-73
2023/05/12 05:50:38;;;;;;;8.33;4.43;;;23.30;70.10;;;;;;5073557;28;20176;-71
2023/05/12 05:53:05;;;;;;;12.83;2.37;;;23.10;66.50;;;;;;5073148;28;20272;-71
2023/05/12 05:55:33;;;;;;;3.17;1.57;;;23.10;66.10;;;;;;5073897;28;20214;-73
2023/05/12 05:58:01;;;;;;;2.70;1.47;;;23.10;67.40;;;;;;5068408;28;20176;-76
2023/05/12 06:00:29;;;;;;;3.50;1.27;;;23.20;66.30;;;;;;5072850;28;20188;-72
2023/05/12 06:02:56;;;;;;;9.77;2.50;;;23.10;69.40;;;;;;5072331;28;20180;-77
2023/05/12 06:05:24;;;;;;;3.70;1.57;;;23.10;67.20;;;;;;5072366;28;20711;-76
2023/05/12 06:07:52;;;;;;;4.27;2.00;;;23.10;66.80;;;;;;5072628;28;20609;-75
2023/05/12 06:10:20;;;;;;;5.50;1.90;;;23.00;70.60;;;;;;5072494;28;20225;-74
2023/05/12 06:12:49;;;;;;;5.90;1.40;;;22.80;74.50;;;;;;5072789;28;20194;-69
2023/05/12 06:15:17;;;;;;;3.90;1.50;;;22.60;80.70;;;;;;5072296;28;20187;-75
2023/05/12 06:17:45;;;;;;;2.90;1.73;;;22.40;77.40;;;;;;5072165;28;20273;-73
2023/05/12 06:20:13;;;;;;;4.13;1.90;;;22.40;74.30;;;;;;5072477;28;20629;-77
2023/05/12 06:22:41;;;;;;;2.47;1.80;;;22.00;81.20;;;;;;5072478;28;20657;-69
2023/05/12 06:25:09;;;;;;;7.80;2.60;;;21.80;83.30;;;;;;5072148;28;20234;-69
2023/05/12 06:27:37;;;;;;;4.03;2.13;;;21.60;92.40;;;;;;5070875;28;20265;-69
2023/05/12 06:30:06;;;;;;;3.33;1.63;;;21.60;93.40;;;;;;5072045;28;20705;-76
2023/05/12 06:32:33;;;;;;;2.27;1.63;;;21.40;95.60;;;;;;5071931;28;20228;-73
2023/05/12 06:35:01;;;;;;;7.30;2.80;;;21.30;99.90;;;;;;5071678;28;20192;-74
2023/05/12 06:37:29;;;;;;;5.63;2.40;;;21.10;99.90;;;;;;5072355;28;20542;-73
2023/05/12 06:39:57;;;;;;;14.27;5.23;;;21.00;99.90;;;;;;5071059;28;20244;-76
2023/05/12 06:42:25;;;;;;;5.97;1.73;;;20.90;99.90;;;;;;5071769;28;20253;-75
2023/05/12 06:44:52;;;;;;;4.17;1.70;;;21.10;99.90;;;;;;5071378;28;20192;-77
2023/05/12 06:47:20;;;;;;;3.43;1.90;;;21.10;99.90;;;;;;5072014;28;20184;-76
2023/05/12 06:49:48;;;;;;;8.37;2.30;;;21.30;99.90;;;;;;5071890;28;20296;-75
2023/05/12 06:52:16;;;;;;;8.63;2.17;;;21.30;99.90;;;;;;5071919;28;20203;-76
2023/05/12 06:54:44;;;;;;;8.97;1.80;;;21.20;99.90;;;;;;5071880;28;20689;-77
2023/05/12 06:57:18;;;;;;;5.83;2.10;;;21.00;99.90;;;;;;5072033;28;20258;-80
2023/05/12 06:59:46;;;;;;;7.17;2.10;;;21.00;99.90;;;;;;5071851;28;20637;-77
2023/05/12 07:02:14;;;;;;;6.80;1.80;;;21.00;99.90;;;;;;5071839;28;20272;-75
2023/05/12 07:04:42;;;;;;;6.07;2.07;;;20.90;99.90;;;;;;5073275;28;20181;-75
2023/05/12 07:07:09;;;;;;;4.83;1.93;;;20.90;99.90;;;;;;5079844;28;20172;-72
2023/05/12 07:09:39;;;;;;;5.73;2.00;;;20.80;99.90;;;;;;5072803;28;20207;-79
2023/05/12 07:12:08;;;;;;;4.73;1.80;;;20.60;99.90;;;;;;5071641;28;20191;-77
2023/05/12 07:14:36;;;;;;;5.70;2.50;;;20.30;99.90;;;;;;5071644;28;20186;-77
2023/05/12 07:17:04;;;;;;;2.53;1.87;;;20.10;99.90;;;;;;5071590;28;20178;-72
2023/05/12 07:19:31;;;;;;;7.23;2.37;;;19.90;99.90;;;;;;5071816;28;20183;-77
2023/05/12 07:21:59;;;;;;;5.03;2.43;;;19.60;99.90;;;;;;5071736;28;20190;-78
2023/05/12 07:24:27;;;;;;;8.93;2.50;;;19.40;99.90;;;;;;5071949;28;20181;-77
2023/05/12 07:26:55;;;;;;;4.03;1.90;;;19.20;99.90;;;;;;5071514;28;20172;-75
2023/05/12 07:29:23;;;;;;;4.70;2.13;;;19.00;99.90;;;;;;5071664;28;20564;-79
2023/05/12 07:31:51;;;;;;;6.43;2.87;;;18.90;99.90;;;;;;5071443;28;20213;-75
2023/05/12 07:34:20;;;;;;;8.27;2.50;;;18.80;99.90;;;;;;5071664;28;20221;-77
2023/05/12 07:36:47;;;;;;;9.50;2.90;;;18.70;99.90;;;;;;5070100;28;20206;-76
2023/05/12 07:39:18;;;;;;;8.83;2.53;;;18.60;99.90;;;;;;5072409;28;20183;-75
2023/05/12 07:41:45;;;;;;;9.03;2.60;;;18.50;99.90;;;;;;5075755;28;20193;-76
2023/05/12 07:44:13;;;;;;;7.33;2.67;;;18.40;99.90;;;;;;5075713;28;20171;-77
2023/05/12 07:46:41;;;;;;;7.20;2.43;;;18.40;99.90;;;;;;5075603;28;20234;-74
2023/05/12 07:49:09;;;;;;;5.10;2.17;;;18.30;99.90;;;;;;5075386;28;20676;-77
2023/05/12 07:51:37;;;;;;;8.97;2.40;;;18.20;99.90;;;;;;5075518;28;20258;-78
2023/05/12 07:54:06;;;;;;;11.73;3.00;;;18.10;99.90;;;;;;5075340;28;20544;-75
2023/05/12 07:56:33;;;;;;;7.83;3.00;;;18.00;99.90;;;;;;5075549;28;20174;-73
2023/05/12 07:59:01;;;;;;;8.70;3.53;;;17.90;99.90;;;;;;5075323;28;20188;-78
2023/05/12 08:01:29;;;;;;;8.47;3.07;;;17.90;99.90;;;;;;5075127;28;20256;-73
2023/05/12 08:03:57;;;;;;;7.80;3.00;;;17.80;99.90;;;;;;5075264;28;20180;-75
2023/05/12 08:06:24;;;;;;;6.43;2.73;;;17.70;99.90;;;;;;5074675;28;20175;-76
2023/05/12 08:08:54;;;;;;;9.63;2.93;;;17.60;99.90;;;;;;5074584;28;20211;-75
2023/05/12 08:11:22;;;;;;;9.57;2.80;;;17.60;99.90;;;;;;5075084;28;20218;-76
2023/05/12 08:13:50;;;;;;;10.47;2.93;;;17.50;99.90;;;;;;5075102;28;20185;-72
2023/05/12 08:16:18;;;;;;;13.00;6.03;;;17.50;99.90;;;;;;5074443;28;20603;-73
2023/05/12 08:18:46;;;;;;;10.13;4.17;;;17.40;99.90;;;;;;5071989;28;20182;-74
2023/05/12 08:21:14;;;;;;;6.70;3.47;;;17.40;99.90;;;;;;5074753;28;20190;-75
2023/05/12 08:23:41;;;;;;;10.93;3.70;;;17.20;99.90;;;;;;5074954;28;20174;-75
2023/05/12 08:26:09;;;;;;;10.73;3.23;;;17.10;99.90;;;;;;5074936;28;20172;-75
2023/05/12 08:28:37;;;;;;;12.87;4.13;;;17.10;99.90;;;;;;5074671;28;20211;-76
2023/05/12 08:31:05;;;;;;;10.93;3.47;;;17.10;99.90;;;;;;5074530;28;20202;-74
2023/05/12 08:33:37;;;;;;;11.30;3.57;;;17.00;99.90;;;;;;5074378;28;20219;-75
2023/05/12 08:36:05;;;;;;;7.87;4.00;;;17.00;99.90;;;;;;5074614;28;20180;-74
2023/05/12 08:38:33;;;;;;;10.77;3.67;;;16.90;99.90;;;;;;5074647;28;20179;-75
2023/05/12 08:41:18;;;;;;;8.67;3.77;;;16.90;99.90;;;;;;5074406;28;20238;-77
2023/05/12 08:43:51;;;;;;;11.37;4.00;;;16.90;99.90;;;;;;5074468;28;20184;-75
2023/05/12 08:46:19;;;;;;;9.73;4.00;;;16.80;99.90;;;;;;5074421;28;20176;-76
2023/05/12 08:48:49;;;;;;;13.10;4.00;;;16.70;99.90;;;;;;5074489;28;20207;-74
2023/05/12 08:51:18;;;;;;;9.37;3.60;;;16.70;99.90;;;;;;5073487;28;20713;-75
2023/05/12 08:53:48;;;;;;;10.07;3.73;;;16.60;99.90;;;;;;5074214;28;20180;-76
2023/05/12 08:56:20;;;;;;;14.43;3.77;;;16.60;99.90;;;;;;5074247;28;20675;-74
2023/05/12 08:58:48;;;;;;;10.67;3.53;;;16.50;99.90;;;;;;5074209;28;20207;-77
2023/05/12 09:01:17;;;;;;;10.73;3.80;;;16.50;99.90;;;;;;5074109;28;20185;-77
2023/05/12 09:03:45;;;;;;;12.53;3.77;;;16.50;99.90;;;;;;5074041;28;20586;-78
2023/05/12 09:06:14;;;;;;;8.87;3.20;;;16.40;99.90;;;;;;5074005;28;20729;-75
2023/05/12 09:08:42;;;;;;;8.30;3.03;;;16.30;99.90;;;;;;5073613;28;20208;-77
2023/05/12 09:11:12;;;;;;;8.03;2.67;;;16.30;99.90;;;;;;5073917;28;20211;-76
2023/05/12 09:13:52;;;;;;;13.83;4.30;;;16.20;99.90;;;;;;5072688;28;20557;-76
2023/05/12 09:16:24;;;;;;;11.57;4.30;;;16.20;99.90;;;;;;5074014;28;20172;-75
2023/05/12 09:18:57;;;;;;;9.67;4.13;;;16.10;99.90;;;;;;5073540;28;20187;-76
2023/05/12 09:21:25;;;;;;;13.23;4.87;;;16.10;99.90;;;;;;5073546;28;20265;-77
2023/05/12 09:23:56;;;;;;;10.60;4.93;;;16.00;99.90;;;;;;5073676;28;20188;-70
2023/05/12 09:26:25;;;;;;;8.83;4.13;;;16.00;99.90;;;;;;5074152;28;20172;-75
2023/05/12 09:28:55;;;;;;;10.33;3.77;;;16.10;99.90;;;;;;5073647;28;20203;-77
2023/05/12 09:31:26;;;;;;;10.60;4.00;;;16.10;99.90;;;;;;5073530;28;20253;-76
2023/05/12 09:33:54;;;;;;;9.60;4.50;;;16.10;99.90;;;;;;5073366;28;20300;-76
2023/05/12 09:36:24;;;;;;;14.00;4.63;;;16.10;99.90;;;;;;5072818;28;20684;-75
2023/05/12 09:39:06;;;;;;;13.60;4.53;;;16.10;99.90;;;;;;5071720;28;20258;-74
2023/05/12 09:41:42;;;;;;;11.63;5.27;;;16.10;99.90;;;;;;5070901;28;20226;-74
2023/05/12 09:44:13;;;;;;;12.57;5.77;;;16.10;99.90;;;;;;5070688;28;20229;-74
2023/05/12 09:46:41;;;;;;;14.00;6.50;;;16.10;99.90;;;;;;5071524;28;20176;-76
2023/05/12 09:49:09;;;;;;;15.37;7.80;;;16.10;99.90;;;;;;5073177;28;20211;-74
2023/05/12 09:51:37;;;;;;;16.83;7.83;;;16.10;99.90;;;;;;5071883;28;20184;-77
2023/05/12 09:54:05;;;;;;;17.53;8.20;;;16.10;99.90;;;;;;5073025;28;20233;-75
2023/05/12 09:56:35;;;;;;;24.23;8.77;;;16.00;99.90;;;;;;5072437;28;20516;-76
2023/05/12 09:59:04;;;;;;;13.87;7.57;;;16.00;99.90;;;;;;5069040;28;20183;-73
2023/05/12 10:01:33;;;;;;;13.37;6.77;;;15.90;99.90;;;;;;5072504;28;20690;-74
2023/05/12 10:04:01;;;;;;;17.53;7.17;;;15.90;99.90;;;;;;5070113;28;20262;-76
2023/05/12 10:06:36;;;;;;;10.70;6.80;;;15.80;99.90;;;;;;5071417;28;20180;-72
2023/05/12 10:09:16;;;;;;;19.07;7.70;;;15.60;99.90;;;;;;5072854;28;20695;-76
2023/05/12 10:11:45;;;;;;;15.83;6.40;;;15.60;99.90;;;;;;5072833;28;20182;-75
2023/05/12 10:14:14;;;;;;;16.33;6.47;;;15.60;99.90;;;;;;5071380;28;20210;-72
2023/05/12 10:16:44;;;;;;;16.73;5.70;;;15.50;99.90;;;;;;5072730;28;20179;-77
2023/05/12 10:19:14;;;;;;;10.77;5.77;;;15.50;99.90;;;;;;5072599;28;20559;-75
2023/05/12 10:21:46;;;;;;;15.80;6.20;;;15.40;99.90;;;;;;5072839;28;20168;-74
2023/05/12 10:24:17;;;;;;;11.87;5.77;;;15.30;99.90;;;;;;5071944;28;20661;-76
2023/05/12 10:26:45;;;;;;;11.30;5.73;;;15.30;99.90;;;;;;5072117;28;20191;-77
2023/05/12 10:29:13;;;;;;;17.23;6.00;;;15.30;99.90;;;;;;5072470;28;20266;-75
2023/05/12 10:31:43;;;;;;;12.87;5.37;;;15.30;99.90;;;;;;5071095;28;20187;-74
2023/05/12 10:34:20;;;;;;;15.50;5.80;;;15.30;99.90;;;;;;5071955;28;20247;-74
2023/05/12 10:36:50;;;;;;;13.33;6.03;;;15.20;99.90;;;;;;5072264;28;20690;-74
2023/05/12 10:39:18;;;;;;;14.53;5.97;;;15.20;99.90;;;;;;5072036;28;20176;-76
2023/05/12 10:41:46;;;;;;;16.73;7.23;;;15.10;99.90;;;;;;5072243;28;20168;-75
2023/05/12 10:44:14;;;;;;;12.10;6.33;;;15.10;99.90;;;;;;5072114;28;20223;-74
2023/05/12 10:46:42;;;;;;;20.80;8.13;;;15.10;99.90;;;;;;5072008;28;20182;-74
2023/05/12 10:49:12;;;;;;;14.90;7.30;;;15.10;99.90;;;;;;5072007;28;20203;-74
2023/05/12 10:51:48;;;;;;;14.70;6.63;;;15.20;99.90;;;;;;5072151;28;20172;-75
2023/05/12 10:54:25;;;;;;;18.30;6.47;;;15.20;99.90;;;;;;5072221;28;20572;-77
2023/05/12 10:56:59;;;;;;;14.60;6.80;;;15.10;99.90;;;;;;5071635;28;20175;-73
2023/05/12 10:59:27;;;;;;;13.10;7.20;;;15.10;99.90;;;;;;5071587;28;20183;-72
2023/05/12 11:02:13;;;;;;;14.43;7.87;;;15.10;99.90;;;;;;5071954;28;20190;-74
2023/05/12 11:04:45;;;;;;;12.33;8.03;;;15.10;99.90;;;;;;5071292;28;20721;-76
2023/05/12 11:07:14;;;;;;;11.93;7.53;;;15.10;99.90;;;;;;5071005;28;20211;-74
2023/05/12 11:09:45;;;;;;;16.50;7.43;;;15.00;99.90;;;;;;5071278;28;20211;-73
2023/05/12 11:12:14;;;;;;;12.97;6.53;;;14.90;99.90;;;;;;5071396;28;20715;-73
2023/05/12 11:14:44;;;;;;;18.10;8.27;;;14.90;99.90;;;;;;5071078;28;20302;-72
2023/05/12 11:17:13;;;;;;;16.80;6.57;;;14.90;99.90;;;;;;5071150;28;20309;-74
2023/05/12 11:19:46;;;;;;;14.37;7.13;;;14.80;99.90;;;;;;5071541;28;20176;-74
2023/05/12 11:22:20;;;;;;;12.70;6.73;;;14.70;99.90;;;;;;5071748;28;20181;-73
2023/05/12 11:24:49;;;;;;;11.37;6.80;;;14.60;99.90;;;;;;5071667;28;20658;-72
2023/05/12 11:27:19;;;;;;;13.87;6.20;;;14.60;99.90;;;;;;5070111;28;20185;-70
2023/05/12 11:30:00;;;;;;;16.53;7.60;;;14.50;99.90;;;;;;5071582;28;20323;-67
2023/05/12 11:32:28;;;;;;;11.33;6.30;;;14.50;99.90;;;;;;5071429;28;20231;-71
2023/05/12 11:35:08;;;;;;;12.03;5.87;;;14.40;99.90;;;;;;5071628;28;20180;-75
2023/05/12 11:37:41;;;;;;;14.53;6.90;;;14.40;99.90;;;;;;5070380;28;20179;-73
2023/05/12 11:40:19;;;;;;;12.97;6.87;;;14.40;99.90;;;;;;5071193;28;20183;-71
2023/05/12 11:42:50;;;;;;;12.77;6.70;;;14.40;99.90;;;;;;5069669;28;20177;-70
2023/05/12 11:45:24;;;;;;;14.33;6.90;;;14.30;99.90;;;;;;5066682;28;20187;-68
2023/05/12 11:47:53;;;;;;;12.43;5.50;;;14.20;99.90;;;;;;5071023;28;20207;-74
2023/05/12 11:50:23;;;;;;;12.60;5.40;;;14.10;99.90;;;;;;5071403;28;20310;-71
2023/05/12 11:52:52;;;;;;;15.60;5.83;;;14.10;99.90;;;;;;5071522;28;20543;-68
2023/05/12 11:55:24;;;;;;;13.20;6.17;;;14.10;99.90;;;;;;5071195;28;20184;-69
2023/05/12 11:58:01;;;;;;;13.37;6.20;;;14.10;99.90;;;;;;5071779;28;20180;-73
2023/05/12 12:00:31;;;;;;;15.13;6.00;;;14.10;99.90;;;;;;5071482;28;20180;-69
2023/05/12 12:03:28;;;;;;;15.63;5.53;;;14.10;99.90;;;;;;5071536;28;20267;-73
2023/05/12 12:06:01;;;;;;;16.80;6.30;;;14.00;99.90;;;;;;5058360;28;20237;-74
2023/05/12 12:08:29;;;;;;;12.30;6.40;;;14.00;99.90;;;;;;5071651;28;20240;-69
2023/05/12 12:10:57;;;;;;;12.47;5.77;;;14.10;99.90;;;;;;5070910;28;20189;-74
2023/05/12 12:13:25;;;;;;;14.27;6.10;;;14.10;99.90;;;;;;5071707;28;20637;-74
2023/05/12 12:15:53;;;;;;;19.00;5.73;;;14.10;99.90;;;;;;5071598;28;20183;-74
2023/05/12 12:18:21;;;;;;;11.23;5.40;;;14.20;99.90;;;;;;5071055;28;20269;-75
2023/05/12 12:20:49;;;;;;;9.73;5.90;;;14.20;99.90;;;;;;5071879;28;20187;-74
2023/05/12 12:23:16;;;;;;;12.43;5.83;;;14.20;99.90;;;;;;5071210;28;20199;-72
2023/05/12 12:25:44;;;;;;;13.60;6.30;;;14.20;99.90;;;;;;5071658;28;20188;-74
2023/05/12 12:28:12;;;;;;;11.17;5.40;;;14.20;99.90;;;;;;5075057;28;20210;-75
2023/05/12 12:30:40;;;;;;;12.70;6.00;;;14.20;99.90;;;;;;5074833;28;20214;-75
2023/05/12 12:33:07;;;;;;;10.40;5.80;;;14.20;99.90;;;;;;5074311;28;20246;-73
2023/05/12 12:35:35;;;;;;;9.27;6.43;;;14.20;99.90;;;;;;5075057;28;20191;-73
2023/05/12 12:38:03;;;;;;;12.47;5.60;;;14.30;99.90;;;;;;5075175;28;20187;-76
2023/05/12 12:40:34;;;;;;;14.80;6.30;;;14.20;99.90;;;;;;5074994;28;20188;-75
2023/05/12 12:43:02;;;;;;;11.90;5.77;;;14.20;99.90;;;;;;5074481;28;20613;-73
2023/05/12 12:45:29;;;;;;;11.77;5.70;;;14.20;99.90;;;;;;5074372;28;20649;-75
2023/05/12 12:47:57;;;;;;;12.07;5.77;;;14.20;99.90;;;;;;5074875;28;20696;-75
2023/05/12 12:50:25;;;;;;;17.47;6.10;;;14.10;99.90;;;;;;5074760;28;20714;-73
2023/05/12 12:52:53;;;;;;;12.30;5.70;;;14.10;99.90;;;;;;5074836;28;20731;-75
2023/05/12 12:55:21;;;;;;;10.60;5.43;;;14.10;99.90;;;;;;5074525;28;20551;-75
2023/05/12 12:57:49;;;;;;;12.93;5.57;;;14.00;99.90;;;;;;5074709;28;21169;-74
2023/05/12 13:00:18;;;;;;;16.10;6.20;;;14.00;99.90;;;;;;5075214;28;20218;-75
2023/05/12 13:02:46;;;;;;;14.93;5.87;;;13.90;99.90;;;;;;5074845;28;20208;-75
2023/05/12 13:05:14;;;;;;;11.17;5.73;;;13.90;99.90;;;;;;5075010;28;20180;-73
2023/05/12 13:07:42;;;;;;;9.10;6.20;;;13.80;99.90;;;;;;5075100;28;20607;-76
2023/05/12 13:10:11;;;;;;;15.37;6.30;;;13.80;99.90;;;;;;5074715;28;20215;-74
2023/05/12 13:12:38;;;;;;;12.60;7.07;;;13.80;99.90;;;;;;5074611;28;20180;-76
2023/05/12 13:15:07;;;;;;;13.93;6.70;;;13.80;99.90;;;;;;5074923;28;20183;-76